sensor_id;sensor_type;location;lat;lon;timestamp;P1;durP1;ratioP1;P2;durP2;ratioP2
57593;SDS011;43423;46.510;6.686;2022-10-26T00:01:05;20.60;;;11.60;;
57593;SDS011;43423;46.510;6.686;2022-10-26T00:03:35;19.35;;;11.40;;
57593;SDS011;43423;46.510;6.686;2022-10-26T00:06:05;19.80;;;10.35;;
57593;SDS011;43423;46.510;6.686;2022-10-26T00:08:32;22.25;;;10.57;;
57593;SDS011;43423;46.510;6.686;2022-10-26T00:10:58;24.17;;;10.30;;
57593;SDS011;43423;46.510;6.686;2022-10-26T00:13:23;26.55;;;10.75;;
57593;SDS011;43423;46.510;6.686;2022-10-26T00:15:49;20.92;;;10.57;;
57593;SDS011;43423;46.510;6.686;2022-10-26T00:18:14;20.38;;;9.52;;
57593;SDS011;43423;46.510;6.686;2022-10-26T00:20:40;25.98;;;11.48;;
57593;SDS011;43423;46.510;6.686;2022-10-26T00:23:06;19.30;;;10.43;;
57593;SDS011;43423;46.510;6.686;2022-10-26T00:25:32;18.30;;;10.75;;
57593;SDS011;43423;46.510;6.686;2022-10-26T00:27:58;25.17;;;11.18;;
57593;SDS011;43423;46.510;6.686;2022-10-26T00:30:23;19.60;;;11.60;;
57593;SDS011;43423;46.510;6.686;2022-10-26T00:32:49;27.05;;;12.15;;
57593;SDS011;43423;46.510;6.686;2022-10-26T00:35:14;18.75;;;10.77;;
57593;SDS011;43423;46.510;6.686;2022-10-26T00:37:40;20.13;;;10.48;;
57593;SDS011;43423;46.510;6.686;2022-10-26T00:40:06;22.48;;;10.45;;
57593;SDS011;43423;46.510;6.686;2022-10-26T00:42:31;21.17;;;10.85;;
57593;SDS011;43423;46.510;6.686;2022-10-26T00:44:58;21.15;;;10.77;;
57593;SDS011;43423;46.510;6.686;2022-10-26T00:50:24;18.60;;;10.32;;
57593;SDS011;43423;46.510;6.686;2022-10-26T00:52:50;28.40;;;11.80;;
57593;SDS011;43423;46.510;6.686;2022-10-26T00:55:18;22.75;;;11.82;;
57593;SDS011;43423;46.510;6.686;2022-10-26T00:57:48;27.17;;;12.05;;
57593;SDS011;43423;46.510;6.686;2022-10-26T01:00:16;22.35;;;11.18;;
57593;SDS011;43423;46.510;6.686;2022-10-26T01:02:42;22.95;;;12.15;;
57593;SDS011;43423;46.510;6.686;2022-10-26T01:05:09;20.42;;;11.43;;
57593;SDS011;43423;46.510;6.686;2022-10-26T01:07:36;26.10;;;12.23;;
57593;SDS011;43423;46.510;6.686;2022-10-26T01:10:01;22.38;;;11.10;;
57593;SDS011;43423;46.510;6.686;2022-10-26T01:12:27;23.92;;;12.27;;
57593;SDS011;43423;46.510;6.686;2022-10-26T01:14:52;22.85;;;11.73;;
57593;SDS011;43423;46.510;6.686;2022-10-26T01:20:40;30.42;;;11.57;;
57593;SDS011;43423;46.510;6.686;2022-10-26T01:23:15;23.73;;;10.52;;
57593;SDS011;43423;46.510;6.686;2022-10-26T01:31:15;23.90;;;11.05;;
57593;SDS011;43423;46.510;6.686;2022-10-26T01:33:50;24.25;;;10.90;;
57593;SDS011;43423;46.510;6.686;2022-10-26T01:36:32;22.30;;;11.30;;
57593;SDS011;43423;46.510;6.686;2022-10-26T01:49:15;26.73;;;11.20;;
57593;SDS011;43423;46.510;6.686;2022-10-26T01:51:44;21.42;;;12.02;;
57593;SDS011;43423;46.510;6.686;2022-10-26T01:54:13;25.02;;;13.20;;
57593;SDS011;43423;46.510;6.686;2022-10-26T01:56:39;26.20;;;12.95;;
57593;SDS011;43423;46.510;6.686;2022-10-26T02:02:26;22.42;;;12.63;;
57593;SDS011;43423;46.510;6.686;2022-10-26T02:13:09;16.15;;;7.95;;
57593;SDS011;43423;46.510;6.686;2022-10-26T02:15:52;12.43;;;5.53;;
57593;SDS011;43423;46.510;6.686;2022-10-26T02:21:02;12.95;;;5.97;;
57593;SDS011;43423;46.510;6.686;2022-10-26T02:23:31;14.70;;;7.80;;
57593;SDS011;43423;46.510;6.686;2022-10-26T02:25:59;15.63;;;8.48;;
57593;SDS011;43423;46.510;6.686;2022-10-26T02:28:30;12.63;;;7.50;;
57593;SDS011;43423;46.510;6.686;2022-10-26T02:30:59;14.27;;;7.72;;
57593;SDS011;43423;46.510;6.686;2022-10-26T02:33:28;11.45;;;8.32;;
57593;SDS011;43423;46.510;6.686;2022-10-26T02:35:58;18.95;;;8.65;;
57593;SDS011;43423;46.510;6.686;2022-10-26T02:38:27;21.10;;;10.52;;
57593;SDS011;43423;46.510;6.686;2022-10-26T02:40:55;21.35;;;12.40;;
57593;SDS011;43423;46.510;6.686;2022-10-26T02:43:22;19.20;;;11.65;;
57593;SDS011;43423;46.510;6.686;2022-10-26T02:45:55;25.63;;;12.82;;
57593;SDS011;43423;46.510;6.686;2022-10-26T02:48:24;27.23;;;15.27;;
57593;SDS011;43423;46.510;6.686;2022-10-26T02:50:53;29.35;;;15.38;;
57593;SDS011;43423;46.510;6.686;2022-10-26T02:56:25;27.33;;;15.15;;
57593;SDS011;43423;46.510;6.686;2022-10-26T02:58:56;22.80;;;11.88;;
57593;SDS011;43423;46.510;6.686;2022-10-26T03:01:25;19.43;;;10.77;;
57593;SDS011;43423;46.510;6.686;2022-10-26T03:03:52;17.40;;;10.10;;
57593;SDS011;43423;46.510;6.686;2022-10-26T03:06:22;21.65;;;8.98;;
57593;SDS011;43423;46.510;6.686;2022-10-26T03:08:48;11.93;;;6.30;;
57593;SDS011;43423;46.510;6.686;2022-10-26T03:11:14;13.07;;;5.78;;
57593;SDS011;43423;46.510;6.686;2022-10-26T03:13:39;8.82;;;4.65;;
57593;SDS011;43423;46.510;6.686;2022-10-26T03:16:05;14.25;;;5.22;;
57593;SDS011;43423;46.510;6.686;2022-10-26T03:18:31;9.55;;;5.32;;
57593;SDS011;43423;46.510;6.686;2022-10-26T03:20:56;13.13;;;4.90;;
57593;SDS011;43423;46.510;6.686;2022-10-26T03:23:22;10.27;;;3.88;;
57593;SDS011;43423;46.510;6.686;2022-10-26T03:25:47;9.95;;;5.13;;
57593;SDS011;43423;46.510;6.686;2022-10-26T03:28:13;8.40;;;3.78;;
57593;SDS011;43423;46.510;6.686;2022-10-26T03:30:38;9.95;;;3.80;;
57593;SDS011;43423;46.510;6.686;2022-10-26T03:33:04;7.45;;;3.00;;
57593;SDS011;43423;46.510;6.686;2022-10-26T03:35:29;7.28;;;3.55;;
57593;SDS011;43423;46.510;6.686;2022-10-26T03:37:56;25.30;;;3.70;;
57593;SDS011;43423;46.510;6.686;2022-10-26T03:40:21;9.73;;;3.13;;
57593;SDS011;43423;46.510;6.686;2022-10-26T03:42:47;7.57;;;2.45;;
57593;SDS011;43423;46.510;6.686;2022-10-26T03:45:13;10.93;;;3.10;;
57593;SDS011;43423;46.510;6.686;2022-10-26T03:47:42;7.15;;;2.85;;
57593;SDS011;43423;46.510;6.686;2022-10-26T03:50:12;7.20;;;2.53;;
57593;SDS011;43423;46.510;6.686;2022-10-26T03:52:39;6.35;;;2.58;;
57593;SDS011;43423;46.510;6.686;2022-10-26T03:55:05;10.52;;;2.70;;
57593;SDS011;43423;46.510;6.686;2022-10-26T03:57:31;9.63;;;2.40;;
57593;SDS011;43423;46.510;6.686;2022-10-26T03:59:57;6.78;;;2.10;;
57593;SDS011;43423;46.510;6.686;2022-10-26T04:02:22;9.70;;;2.38;;
57593;SDS011;43423;46.510;6.686;2022-10-26T04:04:48;5.32;;;2.33;;
57593;SDS011;43423;46.510;6.686;2022-10-26T04:07:13;7.40;;;2.90;;
57593;SDS011;43423;46.510;6.686;2022-10-26T04:09:39;3.63;;;2.28;;
57593;SDS011;43423;46.510;6.686;2022-10-26T04:12:04;8.00;;;2.67;;
57593;SDS011;43423;46.510;6.686;2022-10-26T04:14:30;4.22;;;2.20;;
57593;SDS011;43423;46.510;6.686;2022-10-26T04:16:56;8.20;;;3.00;;
57593;SDS011;43423;46.510;6.686;2022-10-26T04:19:21;6.32;;;2.88;;
57593;SDS011;43423;46.510;6.686;2022-10-26T04:21:46;4.32;;;2.72;;
57593;SDS011;43423;46.510;6.686;2022-10-26T04:24:12;5.82;;;2.50;;
57593;SDS011;43423;46.510;6.686;2022-10-26T04:26:38;8.60;;;3.22;;
57593;SDS011;43423;46.510;6.686;2022-10-26T04:29:03;10.77;;;3.25;;
57593;SDS011;43423;46.510;6.686;2022-10-26T04:31:31;6.68;;;3.35;;
57593;SDS011;43423;46.510;6.686;2022-10-26T04:33:57;5.93;;;2.42;;
57593;SDS011;43423;46.510;6.686;2022-10-26T04:36:22;5.75;;;2.60;;
57593;SDS011;43423;46.510;6.686;2022-10-26T04:38:48;14.13;;;3.30;;
57593;SDS011;43423;46.510;6.686;2022-10-26T04:41:14;9.18;;;2.88;;
57593;SDS011;43423;46.510;6.686;2022-10-26T04:43:40;7.03;;;2.80;;
57593;SDS011;43423;46.510;6.686;2022-10-26T04:46:05;10.68;;;2.70;;
57593;SDS011;43423;46.510;6.686;2022-10-26T04:48:31;9.52;;;3.03;;
57593;SDS011;43423;46.510;6.686;2022-10-26T04:50:59;8.63;;;2.85;;
57593;SDS011;43423;46.510;6.686;2022-10-26T04:53:25;7.47;;;3.20;;
57593;SDS011;43423;46.510;6.686;2022-10-26T04:55:57;11.15;;;4.45;;
57593;SDS011;43423;46.510;6.686;2022-10-26T04:58:24;14.90;;;5.38;;
57593;SDS011;43423;46.510;6.686;2022-10-26T05:00:51;14.80;;;7.13;;
57593;SDS011;43423;46.510;6.686;2022-10-26T05:03:16;14.20;;;6.85;;
57593;SDS011;43423;46.510;6.686;2022-10-26T05:05:41;14.85;;;7.75;;
57593;SDS011;43423;46.510;6.686;2022-10-26T05:08:07;17.60;;;9.00;;
57593;SDS011;43423;46.510;6.686;2022-10-26T05:10:33;18.55;;;8.93;;
57593;SDS011;43423;46.510;6.686;2022-10-26T05:12:58;16.58;;;9.27;;
57593;SDS011;43423;46.510;6.686;2022-10-26T05:15:25;14.68;;;7.85;;
57593;SDS011;43423;46.510;6.686;2022-10-26T05:17:54;14.18;;;8.27;;
57593;SDS011;43423;46.510;6.686;2022-10-26T05:20:20;16.17;;;8.60;;
57593;SDS011;43423;46.510;6.686;2022-10-26T05:22:53;22.48;;;10.18;;
57593;SDS011;43423;46.510;6.686;2022-10-26T05:25:19;16.40;;;9.70;;
57593;SDS011;43423;46.510;6.686;2022-10-26T05:27:44;17.00;;;9.88;;
57593;SDS011;43423;46.510;6.686;2022-10-26T05:30:10;19.05;;;10.18;;
57593;SDS011;43423;46.510;6.686;2022-10-26T05:32:36;21.63;;;11.35;;
57593;SDS011;43423;46.510;6.686;2022-10-26T05:35:01;22.02;;;10.98;;
57593;SDS011;43423;46.510;6.686;2022-10-26T05:37:27;18.33;;;10.85;;
57593;SDS011;43423;46.510;6.686;2022-10-26T05:39:53;21.45;;;10.88;;
57593;SDS011;43423;46.510;6.686;2022-10-26T05:42:19;22.10;;;11.32;;
57593;SDS011;43423;46.510;6.686;2022-10-26T05:44:45;25.55;;;12.40;;
57593;SDS011;43423;46.510;6.686;2022-10-26T05:47:10;23.40;;;12.63;;
57593;SDS011;43423;46.510;6.686;2022-10-26T05:49:36;23.10;;;10.80;;
57593;SDS011;43423;46.510;6.686;2022-10-26T05:52:02;25.58;;;11.40;;
57593;SDS011;43423;46.510;6.686;2022-10-26T05:54:27;22.58;;;11.43;;
57593;SDS011;43423;46.510;6.686;2022-10-26T05:56:53;21.55;;;11.00;;
57593;SDS011;43423;46.510;6.686;2022-10-26T05:59:19;20.30;;;10.70;;
57593;SDS011;43423;46.510;6.686;2022-10-26T06:02:03;16.15;;;10.32;;
57593;SDS011;43423;46.510;6.686;2022-10-26T06:04:43;23.92;;;10.55;;
57593;SDS011;43423;46.510;6.686;2022-10-26T06:07:14;20.15;;;9.57;;
57593;SDS011;43423;46.510;6.686;2022-10-26T06:09:42;18.63;;;9.82;;
57593;SDS011;43423;46.510;6.686;2022-10-26T06:12:08;16.65;;;8.63;;
57593;SDS011;43423;46.510;6.686;2022-10-26T06:14:34;16.67;;;7.93;;
57593;SDS011;43423;46.510;6.686;2022-10-26T06:17:13;12.90;;;5.80;;
57593;SDS011;43423;46.510;6.686;2022-10-26T06:20:04;10.52;;;5.07;;
57593;SDS011;43423;46.510;6.686;2022-10-26T06:28:50;9.55;;;4.40;;
57593;SDS011;43423;46.510;6.686;2022-10-26T06:31:31;8.77;;;3.95;;
57593;SDS011;43423;46.510;6.686;2022-10-26T06:33:57;8.45;;;4.85;;
57593;SDS011;43423;46.510;6.686;2022-10-26T06:36:26;8.98;;;4.82;;
57593;SDS011;43423;46.510;6.686;2022-10-26T06:39:03;8.05;;;4.78;;
57593;SDS011;43423;46.510;6.686;2022-10-26T06:41:32;7.93;;;5.07;;
57593;SDS011;43423;46.510;6.686;2022-10-26T06:43:59;9.18;;;4.82;;
57593;SDS011;43423;46.510;6.686;2022-10-26T06:49:12;7.55;;;4.32;;
57593;SDS011;43423;46.510;6.686;2022-10-26T06:51:46;10.40;;;4.80;;
57593;SDS011;43423;46.510;6.686;2022-10-26T06:54:19;11.25;;;5.32;;
57593;SDS011;43423;46.510;6.686;2022-10-26T06:56:52;11.60;;;4.95;;
57593;SDS011;43423;46.510;6.686;2022-10-26T06:59:34;12.13;;;5.47;;
57593;SDS011;43423;46.510;6.686;2022-10-26T07:02:03;8.35;;;5.47;;
57593;SDS011;43423;46.510;6.686;2022-10-26T07:04:29;10.10;;;5.32;;
57593;SDS011;43423;46.510;6.686;2022-10-26T07:06:54;9.75;;;5.20;;
57593;SDS011;43423;46.510;6.686;2022-10-26T07:09:21;10.68;;;5.38;;
57593;SDS011;43423;46.510;6.686;2022-10-26T07:11:47;11.02;;;4.30;;
57593;SDS011;43423;46.510;6.686;2022-10-26T07:14:12;9.27;;;4.10;;
57593;SDS011;43423;46.510;6.686;2022-10-26T07:16:38;8.90;;;4.30;;
57593;SDS011;43423;46.510;6.686;2022-10-26T07:19:03;9.20;;;4.05;;
57593;SDS011;43423;46.510;6.686;2022-10-26T07:21:29;9.23;;;3.45;;
57593;SDS011;43423;46.510;6.686;2022-10-26T07:23:54;6.95;;;3.38;;
57593;SDS011;43423;46.510;6.686;2022-10-26T07:26:21;5.13;;;3.10;;
57593;SDS011;43423;46.510;6.686;2022-10-26T07:28:47;5.82;;;3.03;;
57593;SDS011;43423;46.510;6.686;2022-10-26T07:31:14;16.77;;;3.72;;
57593;SDS011;43423;46.510;6.686;2022-10-26T07:33:40;9.00;;;3.25;;
57593;SDS011;43423;46.510;6.686;2022-10-26T07:36:07;6.05;;;3.15;;
57593;SDS011;43423;46.510;6.686;2022-10-26T07:38:35;7.80;;;2.50;;
57593;SDS011;43423;46.510;6.686;2022-10-26T07:41:02;11.10;;;2.97;;
57593;SDS011;43423;46.510;6.686;2022-10-26T07:43:28;8.10;;;2.72;;
57593;SDS011;43423;46.510;6.686;2022-10-26T07:45:53;6.57;;;2.55;;
57593;SDS011;43423;46.510;6.686;2022-10-26T07:48:19;5.40;;;3.00;;
57593;SDS011;43423;46.510;6.686;2022-10-26T07:50:45;5.10;;;2.90;;
57593;SDS011;43423;46.510;6.686;2022-10-26T07:53:10;8.70;;;3.10;;
57593;SDS011;43423;46.510;6.686;2022-10-26T07:55:36;7.97;;;2.42;;
57593;SDS011;43423;46.510;6.686;2022-10-26T07:58:02;7.95;;;3.53;;
57593;SDS011;43423;46.510;6.686;2022-10-26T08:00:28;9.10;;;2.40;;
57593;SDS011;43423;46.510;6.686;2022-10-26T08:02:54;7.70;;;2.10;;
57593;SDS011;43423;46.510;6.686;2022-10-26T08:05:20;4.95;;;2.20;;
57593;SDS011;43423;46.510;6.686;2022-10-26T08:07:46;4.60;;;1.58;;
57593;SDS011;43423;46.510;6.686;2022-10-26T08:10:11;3.70;;;1.40;;
57593;SDS011;43423;46.510;6.686;2022-10-26T08:12:38;1.27;;;1.02;;
57593;SDS011;43423;46.510;6.686;2022-10-26T08:15:04;6.40;;;1.88;;
57593;SDS011;43423;46.510;6.686;2022-10-26T08:17:30;2.10;;;1.50;;
57593;SDS011;43423;46.510;6.686;2022-10-26T08:19:56;3.53;;;1.60;;
57593;SDS011;43423;46.510;6.686;2022-10-26T08:22:21;3.90;;;1.88;;
57593;SDS011;43423;46.510;6.686;2022-10-26T08:24:47;4.72;;;1.52;;
57593;SDS011;43423;46.510;6.686;2022-10-26T08:27:13;7.35;;;2.10;;
57593;SDS011;43423;46.510;6.686;2022-10-26T08:29:39;7.25;;;2.75;;
57593;SDS011;43423;46.510;6.686;2022-10-26T08:32:05;4.35;;;2.80;;
57593;SDS011;43423;46.510;6.686;2022-10-26T08:34:31;6.45;;;3.00;;
57593;SDS011;43423;46.510;6.686;2022-10-26T08:36:57;4.07;;;2.90;;
57593;SDS011;43423;46.510;6.686;2022-10-26T08:39:22;8.80;;;3.47;;
57593;SDS011;43423;46.510;6.686;2022-10-26T08:41:48;5.13;;;2.97;;
57593;SDS011;43423;46.510;6.686;2022-10-26T08:44:30;4.25;;;2.85;;
57593;SDS011;43423;46.510;6.686;2022-10-26T08:47:09;7.00;;;2.72;;
57593;SDS011;43423;46.510;6.686;2022-10-26T08:49:56;5.45;;;2.63;;
57593;SDS011;43423;46.510;6.686;2022-10-26T08:52:35;8.00;;;3.03;;
57593;SDS011;43423;46.510;6.686;2022-10-26T08:55:10;5.38;;;2.45;;
57593;SDS011;43423;46.510;6.686;2022-10-26T08:57:40;5.68;;;2.65;;
57593;SDS011;43423;46.510;6.686;2022-10-26T09:00:10;7.63;;;2.33;;
57593;SDS011;43423;46.510;6.686;2022-10-26T09:02:39;2.63;;;2.00;;
57593;SDS011;43423;46.510;6.686;2022-10-26T09:05:11;4.13;;;2.35;;
57593;SDS011;43423;46.510;6.686;2022-10-26T09:18:23;8.38;;;2.92;;
57593;SDS011;43423;46.510;6.686;2022-10-26T09:21:09;5.83;;;2.00;;
57593;SDS011;43423;46.510;6.686;2022-10-26T09:23:58;6.28;;;2.17;;
57593;SDS011;43423;46.510;6.686;2022-10-26T09:26:34;5.40;;;1.98;;
57593;SDS011;43423;46.510;6.686;2022-10-26T09:29:26;3.65;;;1.92;;
57593;SDS011;43423;46.510;6.686;2022-10-26T09:32:04;7.07;;;2.00;;
57593;SDS011;43423;46.510;6.686;2022-10-26T09:34:40;4.47;;;2.15;;
57593;SDS011;43423;46.510;6.686;2022-10-26T09:37:20;4.03;;;1.65;;
57593;SDS011;43423;46.510;6.686;2022-10-26T09:42:43;7.68;;;2.00;;
57593;SDS011;43423;46.510;6.686;2022-10-26T09:45:23;7.32;;;1.70;;
57593;SDS011;43423;46.510;6.686;2022-10-26T09:47:53;3.17;;;1.52;;
57593;SDS011;43423;46.510;6.686;2022-10-26T09:50:32;7.25;;;1.60;;
57593;SDS011;43423;46.510;6.686;2022-10-26T09:52:59;6.07;;;2.03;;
57593;SDS011;43423;46.510;6.686;2022-10-26T09:55:25;5.38;;;1.70;;
57593;SDS011;43423;46.510;6.686;2022-10-26T09:57:52;3.63;;;1.55;;
57593;SDS011;43423;46.510;6.686;2022-10-26T10:00:21;6.90;;;2.00;;
57593;SDS011;43423;46.510;6.686;2022-10-26T10:02:52;3.50;;;1.67;;
57593;SDS011;43423;46.510;6.686;2022-10-26T10:05:23;4.93;;;1.90;;
57593;SDS011;43423;46.510;6.686;2022-10-26T10:08:16;6.88;;;2.10;;
57593;SDS011;43423;46.510;6.686;2022-10-26T10:13:31;6.03;;;2.60;;
57593;SDS011;43423;46.510;6.686;2022-10-26T10:18:32;5.57;;;2.25;;
57593;SDS011;43423;46.510;6.686;2022-10-26T10:20:59;4.60;;;3.17;;
57593;SDS011;43423;46.510;6.686;2022-10-26T10:26:02;7.03;;;3.05;;
57593;SDS011;43423;46.510;6.686;2022-10-26T10:28:35;7.40;;;3.40;;
57593;SDS011;43423;46.510;6.686;2022-10-26T10:31:03;7.13;;;2.58;;
57593;SDS011;43423;46.510;6.686;2022-10-26T10:33:49;5.20;;;2.30;;
57593;SDS011;43423;46.510;6.686;2022-10-26T10:36:18;7.20;;;2.50;;
57593;SDS011;43423;46.510;6.686;2022-10-26T10:38:46;5.18;;;2.80;;
57593;SDS011;43423;46.510;6.686;2022-10-26T10:41:32;6.30;;;2.53;;
57593;SDS011;43423;46.510;6.686;2022-10-26T10:44:23;7.00;;;2.33;;
57593;SDS011;43423;46.510;6.686;2022-10-26T10:47:04;4.57;;;2.45;;
57593;SDS011;43423;46.510;6.686;2022-10-26T10:49:30;6.20;;;2.40;;
57593;SDS011;43423;46.510;6.686;2022-10-26T10:51:57;5.93;;;2.10;;
57593;SDS011;43423;46.510;6.686;2022-10-26T10:57:17;3.80;;;1.98;;
57593;SDS011;43423;46.510;6.686;2022-10-26T11:08:11;6.80;;;2.80;;
57593;SDS011;43423;46.510;6.686;2022-10-26T11:11:15;8.23;;;2.70;;
57593;SDS011;43423;46.510;6.686;2022-10-26T11:14:01;5.07;;;2.17;;
57593;SDS011;43423;46.510;6.686;2022-10-26T11:16:34;6.97;;;2.72;;
57593;SDS011;43423;46.510;6.686;2022-10-26T11:21:40;7.82;;;2.72;;
57593;SDS011;43423;46.510;6.686;2022-10-26T11:24:12;6.68;;;2.90;;
57593;SDS011;43423;46.510;6.686;2022-10-26T11:26:53;3.88;;;2.30;;
57593;SDS011;43423;46.510;6.686;2022-10-26T11:32:22;10.27;;;3.03;;
57593;SDS011;43423;46.510;6.686;2022-10-26T11:35:14;7.22;;;2.72;;
57593;SDS011;43423;46.510;6.686;2022-10-26T11:37:45;10.35;;;3.03;;
57593;SDS011;43423;46.510;6.686;2022-10-26T11:46:02;8.52;;;2.78;;
57593;SDS011;43423;46.510;6.686;2022-10-26T11:48:39;7.97;;;2.75;;
57593;SDS011;43423;46.510;6.686;2022-10-26T11:51:13;3.88;;;2.58;;
57593;SDS011;43423;46.510;6.686;2022-10-26T11:53:44;6.57;;;3.00;;
57593;SDS011;43423;46.510;6.686;2022-10-26T11:56:34;6.30;;;2.65;;
57593;SDS011;43423;46.510;6.686;2022-10-26T11:59:01;5.10;;;2.78;;
57593;SDS011;43423;46.510;6.686;2022-10-26T12:01:26;7.95;;;3.20;;
57593;SDS011;43423;46.510;6.686;2022-10-26T12:03:54;5.03;;;2.47;;
57593;SDS011;43423;46.510;6.686;2022-10-26T12:06:26;5.50;;;2.45;;
57593;SDS011;43423;46.510;6.686;2022-10-26T12:09:00;7.22;;;2.95;;
57593;SDS011;43423;46.510;6.686;2022-10-26T12:11:40;6.80;;;2.80;;
57593;SDS011;43423;46.510;6.686;2022-10-26T12:14:24;7.05;;;3.03;;
57593;SDS011;43423;46.510;6.686;2022-10-26T12:19:52;11.85;;;3.03;;
57593;SDS011;43423;46.510;6.686;2022-10-26T12:22:25;4.95;;;2.65;;
57593;SDS011;43423;46.510;6.686;2022-10-26T12:35:02;7.80;;;2.72;;
57593;SDS011;43423;46.510;6.686;2022-10-26T12:37:48;7.10;;;2.28;;
57593;SDS011;43423;46.510;6.686;2022-10-26T12:43:31;5.80;;;2.78;;
57593;SDS011;43423;46.510;6.686;2022-10-26T12:48:42;7.22;;;2.67;;
57593;SDS011;43423;46.510;6.686;2022-10-26T12:53:48;9.63;;;2.70;;
57593;SDS011;43423;46.510;6.686;2022-10-26T12:56:23;9.20;;;2.75;;
57593;SDS011;43423;46.510;6.686;2022-10-26T13:02:00;7.25;;;2.40;;
57593;SDS011;43423;46.510;6.686;2022-10-26T13:05:01;8.15;;;3.13;;
57593;SDS011;43423;46.510;6.686;2022-10-26T13:07:40;5.28;;;2.17;;
57593;SDS011;43423;46.510;6.686;2022-10-26T13:12:44;9.23;;;2.70;;
57593;SDS011;43423;46.510;6.686;2022-10-26T13:18:18;7.15;;;2.28;;
57593;SDS011;43423;46.510;6.686;2022-10-26T13:21:03;7.13;;;2.70;;
57593;SDS011;43423;46.510;6.686;2022-10-26T13:23:34;7.35;;;3.40;;
57593;SDS011;43423;46.510;6.686;2022-10-26T13:28:42;9.18;;;2.65;;
57593;SDS011;43423;46.510;6.686;2022-10-26T13:33:55;8.23;;;2.42;;
57593;SDS011;43423;46.510;6.686;2022-10-26T13:36:28;7.32;;;2.67;;
57593;SDS011;43423;46.510;6.686;2022-10-26T13:39:05;8.68;;;2.38;;
57593;SDS011;43423;46.510;6.686;2022-10-26T13:41:47;7.53;;;2.50;;
57593;SDS011;43423;46.510;6.686;2022-10-26T13:47:16;7.05;;;2.58;;
57593;SDS011;43423;46.510;6.686;2022-10-26T13:49:49;7.72;;;2.60;;
57593;SDS011;43423;46.510;6.686;2022-10-26T14:00:19;9.02;;;2.80;;
57593;SDS011;43423;46.510;6.686;2022-10-26T14:02:46;9.10;;;2.97;;
57593;SDS011;43423;46.510;6.686;2022-10-26T14:05:14;6.75;;;2.65;;
57593;SDS011;43423;46.510;6.686;2022-10-26T14:07:42;6.40;;;2.70;;
57593;SDS011;43423;46.510;6.686;2022-10-26T14:13:08;6.07;;;2.50;;
57593;SDS011;43423;46.510;6.686;2022-10-26T14:15:41;7.43;;;2.70;;
57593;SDS011;43423;46.510;6.686;2022-10-26T14:18:16;6.30;;;2.60;;
57593;SDS011;43423;46.510;6.686;2022-10-26T14:23:32;6.00;;;3.03;;
57593;SDS011;43423;46.510;6.686;2022-10-26T14:25:59;6.80;;;2.40;;
57593;SDS011;43423;46.510;6.686;2022-10-26T14:28:27;6.72;;;2.47;;
57593;SDS011;43423;46.510;6.686;2022-10-26T14:31:09;6.70;;;2.55;;
57593;SDS011;43423;46.510;6.686;2022-10-26T14:33:35;10.25;;;2.92;;
57593;SDS011;43423;46.510;6.686;2022-10-26T14:36:01;9.80;;;2.60;;
57593;SDS011;43423;46.510;6.686;2022-10-26T14:38:27;6.80;;;2.33;;
57593;SDS011;43423;46.510;6.686;2022-10-26T14:40:55;5.63;;;2.55;;
57593;SDS011;43423;46.510;6.686;2022-10-26T14:43:22;10.07;;;2.47;;
57593;SDS011;43423;46.510;6.686;2022-10-26T14:45:50;7.75;;;2.92;;
57593;SDS011;43423;46.510;6.686;2022-10-26T14:51:06;5.82;;;2.35;;
57593;SDS011;43423;46.510;6.686;2022-10-26T14:53:39;5.70;;;2.33;;
57593;SDS011;43423;46.510;6.686;2022-10-26T14:56:15;8.75;;;2.42;;
57593;SDS011;43423;46.510;6.686;2022-10-26T14:58:45;3.80;;;2.30;;
57593;SDS011;43423;46.510;6.686;2022-10-26T15:01:15;10.70;;;2.80;;
57593;SDS011;43423;46.510;6.686;2022-10-26T15:03:41;5.47;;;2.47;;
57593;SDS011;43423;46.510;6.686;2022-10-26T15:06:21;5.50;;;2.50;;
57593;SDS011;43423;46.510;6.686;2022-10-26T15:09:00;6.85;;;2.38;;
57593;SDS011;43423;46.510;6.686;2022-10-26T15:11:30;8.90;;;2.63;;
57593;SDS011;43423;46.510;6.686;2022-10-26T15:13:57;7.18;;;2.40;;
57593;SDS011;43423;46.510;6.686;2022-10-26T15:16:24;6.80;;;2.70;;
57593;SDS011;43423;46.510;6.686;2022-10-26T15:18:56;10.60;;;2.72;;
57593;SDS011;43423;46.510;6.686;2022-10-26T15:21:28;7.55;;;3.17;;
57593;SDS011;43423;46.510;6.686;2022-10-26T15:23:58;7.85;;;2.92;;
57593;SDS011;43423;46.510;6.686;2022-10-26T15:26:25;7.75;;;3.00;;
57593;SDS011;43423;46.510;6.686;2022-10-26T15:28:51;11.68;;;3.50;;
57593;SDS011;43423;46.510;6.686;2022-10-26T15:38:42;8.52;;;3.15;;
57593;SDS011;43423;46.510;6.686;2022-10-26T15:41:13;7.53;;;2.88;;
57593;SDS011;43423;46.510;6.686;2022-10-26T15:43:40;6.63;;;2.22;;
57593;SDS011;43423;46.510;6.686;2022-10-26T15:46:06;9.85;;;2.67;;
57593;SDS011;43423;46.510;6.686;2022-10-26T15:48:31;6.65;;;2.17;;
57593;SDS011;43423;46.510;6.686;2022-10-26T15:50:58;7.18;;;2.60;;
57593;SDS011;43423;46.510;6.686;2022-10-26T15:53:24;7.43;;;2.50;;
57593;SDS011;43423;46.510;6.686;2022-10-26T15:55:57;9.77;;;2.40;;
57593;SDS011;43423;46.510;6.686;2022-10-26T15:58:24;4.95;;;2.15;;
57593;SDS011;43423;46.510;6.686;2022-10-26T16:00:51;7.13;;;2.78;;
57593;SDS011;43423;46.510;6.686;2022-10-26T16:03:21;9.77;;;3.03;;
57593;SDS011;43423;46.510;6.686;2022-10-26T16:08:16;6.45;;;2.38;;
57593;SDS011;43423;46.510;6.686;2022-10-26T16:10:42;10.25;;;2.75;;
57593;SDS011;43423;46.510;6.686;2022-10-26T16:13:10;12.10;;;3.05;;
57593;SDS011;43423;46.510;6.686;2022-10-26T16:15:37;8.38;;;2.88;;
57593;SDS011;43423;46.510;6.686;2022-10-26T16:18:02;9.55;;;3.17;;
57593;SDS011;43423;46.510;6.686;2022-10-26T16:20:28;7.30;;;2.85;;
57593;SDS011;43423;46.510;6.686;2022-10-26T16:22:54;10.07;;;2.83;;
57593;SDS011;43423;46.510;6.686;2022-10-26T16:25:20;12.55;;;3.60;;
57593;SDS011;43423;46.510;6.686;2022-10-26T16:27:48;5.35;;;2.45;;
57593;SDS011;43423;46.510;6.686;2022-10-26T16:30:14;8.40;;;2.60;;
57593;SDS011;43423;46.510;6.686;2022-10-26T16:32:41;9.38;;;2.88;;
57593;SDS011;43423;46.510;6.686;2022-10-26T16:35:07;12.73;;;3.38;;
57593;SDS011;43423;46.510;6.686;2022-10-26T16:37:33;12.98;;;3.55;;
57593;SDS011;43423;46.510;6.686;2022-10-26T16:39:59;8.82;;;3.53;;
57593;SDS011;43423;46.510;6.686;2022-10-26T16:42:24;11.55;;;2.72;;
57593;SDS011;43423;46.510;6.686;2022-10-26T16:44:50;14.18;;;3.97;;
57593;SDS011;43423;46.510;6.686;2022-10-26T16:47:16;17.40;;;3.47;;
57593;SDS011;43423;46.510;6.686;2022-10-26T16:49:41;9.27;;;3.00;;
57593;SDS011;43423;46.510;6.686;2022-10-26T16:52:08;22.35;;;3.40;;
57593;SDS011;43423;46.510;6.686;2022-10-26T16:54:34;14.23;;;4.10;;
57593;SDS011;43423;46.510;6.686;2022-10-26T16:56:59;15.50;;;3.70;;
57593;SDS011;43423;46.510;6.686;2022-10-26T16:59:25;16.77;;;4.70;;
57593;SDS011;43423;46.510;6.686;2022-10-26T17:01:51;17.60;;;4.40;;
57593;SDS011;43423;46.510;6.686;2022-10-26T17:04:17;13.43;;;4.13;;
57593;SDS011;43423;46.510;6.686;2022-10-26T17:06:42;12.30;;;4.43;;
57593;SDS011;43423;46.510;6.686;2022-10-26T17:09:08;11.45;;;4.82;;
57593;SDS011;43423;46.510;6.686;2022-10-26T17:11:33;16.60;;;4.63;;
57593;SDS011;43423;46.510;6.686;2022-10-26T17:13:59;9.65;;;3.88;;
57593;SDS011;43423;46.510;6.686;2022-10-26T17:16:24;12.73;;;4.80;;
57593;SDS011;43423;46.510;6.686;2022-10-26T17:18:50;11.18;;;3.70;;
57593;SDS011;43423;46.510;6.686;2022-10-26T17:21:17;11.20;;;4.35;;
57593;SDS011;43423;46.510;6.686;2022-10-26T17:23:45;10.63;;;3.83;;
57593;SDS011;43423;46.510;6.686;2022-10-26T17:26:11;16.20;;;4.65;;
57593;SDS011;43423;46.510;6.686;2022-10-26T17:28:38;13.77;;;3.88;;
57593;SDS011;43423;46.510;6.686;2022-10-26T17:31:11;18.20;;;4.13;;